Time;durP1;ratioP1;P1;durP2;ratioP2;P2;SDS_P1;SDS_P2;PMS_P1;PMS_P2;Temp;Humidity;BMP_temperature;BMP_pressure;BME280_temperature;BME280_humidity;BME280_pressure;Samples;Min_cycle;Max_cycle;Signal;HPM_P1;HPM_P2
2022/01/23 00:00:44;;;;;;;;;;;;;;;-3.26;62.86;100955.55;454199;116;922144;-73
2022/01/23 00:02:02;;;;;;;95.66;52.50;;;;;;;-3.26;62.76;100955.55;446248;116;922711;-73
2022/01/23 00:02:55;;;;;;;90.44;51.92;;;;;;;-3.27;62.76;100958.32;444170;116;922638;-74
2022/01/23 00:03:57;;;;;;;84.34;48.78;;;;;;;-3.29;62.75;100950.43;444735;119;922640;-73
2022/01/23 00:05:07;;;;;;;85.72;47.58;;;;;;;-3.31;62.76;100949.72;446230;118;923485;-73
2022/01/23 00:06:08;;;;;;;79.55;46.72;;;;;;;-3.33;62.76;100954.31;446478;116;922600;-73
2022/01/23 00:07:14;;;;;;;82.72;45.99;;;;;;;-3.35;62.70;100956.23;449076;118;923246;-74
2022/01/23 00:08:20;;;;;;;69.39;43.06;;;;;;;-3.37;62.73;100958.19;446743;117;922560;-72
2022/01/23 00:09:24;;;;;;;75.95;43.65;;;;;;;-3.38;62.73;100957.33;446582;116;922979;-74
2022/01/23 00:10:28;;;;;;;71.39;40.32;;;;;;;-3.38;62.74;100956.48;449199;116;922829;-74
2022/01/23 00:11:35;;;;;;;75.40;42.51;;;;;;;-3.39;62.78;100950.30;449424;116;922679;-74
2022/01/23 00:12:50;;;;;;;65.53;38.88;;;;;;;-3.41;62.76;100949.55;449650;117;930651;-73
2022/01/23 00:17:47;;;;;;;75.88;44.02;;;;;;;-3.45;62.83;100956.09;447100;116;923080;-73
2022/01/23 00:18:50;;;;;;;74.04;44.68;;;;;;;-3.47;62.90;100960.67;447157;116;922965;-73
2022/01/23 00:19:57;;;;;;;74.89;45.72;;;;;;;-3.47;62.97;100959.82;448205;118;922990;-72
2022/01/23 00:21:00;;;;;;;74.69;44.22;;;;;;;-3.46;63.01;100956.19;447867;118;923062;-73
2022/01/23 00:22:03;;;;;;;75.11;43.26;;;;;;;-3.47;63.00;100954.48;447174;116;922486;-73
2022/01/23 00:23:15;;;;;;;65.65;39.24;;;;;;;-3.47;63.01;100955.34;447404;116;931048;-73
2022/01/23 00:30:45;;;;;;;51.85;33.01;;;;;;;-3.47;63.07;100952.67;460250;113;922938;-73
2022/01/23 00:31:48;;;;;;;55.45;32.50;;;;;;;-3.47;63.05;100952.67;462493;113;922530;-72
2022/01/23 00:32:52;;;;;;;57.33;34.01;;;;;;;-3.47;63.09;100946.49;461736;113;930566;-72
2022/01/23 00:33:56;;;;;;;54.00;34.21;;;;;;;-3.45;63.17;100941.91;460623;113;923714;-73
2022/01/23 00:35:00;;;;;;;59.39;34.55;;;;;;;-3.45;63.18;100936.58;461611;113;922490;-73
2022/01/23 00:36:04;;;;;;;71.33;39.28;;;;;;;-3.46;63.25;100941.05;462647;113;930282;-73
2022/01/23 00:37:07;;;;;;;64.38;39.51;;;;;;;-3.44;63.35;100936.47;455010;115;922757;-73
2022/01/23 00:38:11;;;;;;;60.59;35.62;;;;;;;-3.41;63.39;100936.22;455100;114;922613;-73
2022/01/23 00:39:15;;;;;;;59.86;35.99;;;;;;;-3.38;63.33;100933.34;462063;113;922509;-73
2022/01/23 00:40:19;;;;;;;65.87;38.03;;;;;;;-3.35;63.25;100929.56;463621;113;930382;-73
2022/01/23 00:41:24;;;;;;;66.19;38.11;;;;;;;-3.33;63.21;100934.80;462909;113;930657;-73
2022/01/23 00:42:28;;;;;;;70.54;39.86;;;;;;;-3.35;63.12;100934.91;462965;113;922607;-73
2022/01/23 00:43:33;;;;;;;72.48;40.11;;;;;;;-3.34;63.12;100938.42;462648;113;923021;-73
2022/01/23 00:44:37;;;;;;;68.88;39.28;;;;;;;-3.33;63.20;100935.64;463233;113;922492;-73
2022/01/23 00:45:56;;;;;;;66.11;39.29;;;;;;;-3.33;63.18;100930.31;463453;113;922755;-73
2022/01/23 00:46:51;;;;;;;71.25;40.36;;;;;;;-3.32;63.09;100933.83;460632;113;923461;-74
2022/01/23 00:48:01;;;;;;;62.09;37.46;;;;;;;-3.33;63.04;100932.98;452023;115;923092;-73
2022/01/23 00:50:13;;;;;;;68.56;39.14;;;;;;;-3.33;62.92;100934.80;461733;113;922535;-73
2022/01/23 00:51:16;;;;;;;72.76;39.95;;;;;;;-3.35;63.00;100934.91;463116;113;923165;-73
2022/01/23 00:52:19;;;;;;;72.35;41.29;;;;;;;-3.35;63.03;100934.91;463005;113;922578;-73
2022/01/23 00:53:22;;;;;;;68.97;40.55;;;;;;;-3.36;63.07;100944.71;463670;113;922754;-73
2022/01/23 00:54:26;;;;;;;70.08;41.27;;;;;;;-3.32;63.41;100942.68;461267;113;922678;-73
2022/01/23 00:55:30;;;;;;;70.34;43.14;;;;;;;-3.32;63.41;100942.68;463270;113;922534;-73
2022/01/23 00:56:33;;;;;;;80.50;45.43;;;;;;;-3.27;63.55;100945.84;463198;113;922578;-73
2022/01/23 00:57:37;;;;;;;81.84;45.14;;;;;;;-3.19;63.67;100934.56;461905;113;922740;-73
2022/01/23 00:58:40;;;;;;;78.71;46.21;;;;;;;-3.11;63.69;100941.02;461589;113;930401;-73
2022/01/23 00:59:44;;;;;;;86.51;47.58;;;;;;;-3.03;63.80;100940.41;461648;113;922629;-73
2022/01/23 01:00:47;;;;;;;77.41;47.36;;;;;;;-2.95;63.88;100938.86;462024;113;922873;-72
2022/01/23 01:01:50;;;;;;;81.10;47.81;;;;;;;-2.86;63.82;100945.28;463190;113;922728;-73
2022/01/23 01:02:55;;;;;;;82.53;48.94;;;;;;;-2.78;63.80;100940.21;463355;113;922538;-73
2022/01/23 01:03:58;;;;;;;89.95;49.99;;;;;;;-2.73;63.66;100940.70;462371;113;930518;-73
2022/01/23 01:05:01;;;;;;;84.43;49.16;;;;;;;-2.64;63.55;100937.28;451197;116;922943;-73
2022/01/23 01:06:04;;;;;;;84.71;48.26;;;;;;;-2.59;63.38;100932.43;452187;114;922770;-73
2022/01/23 01:07:07;;;;;;;81.17;47.91;;;;;;;-2.55;63.15;100941.91;462535;113;922749;-73
2022/01/23 01:08:10;;;;;;;79.77;46.71;;;;;;;-2.51;62.91;100939.84;463203;113;922941;-73
2022/01/23 01:09:14;;;;;;;83.56;48.75;;;;;;;-2.51;62.66;100937.17;463862;113;922810;-73
2022/01/23 01:10:26;;;;;;;82.91;46.91;;;;;;;-2.55;62.51;100930.39;463300;113;922645;-74
2022/01/23 01:12:51;;;;;;;74.82;44.67;;;;;;;-2.61;62.28;100926.38;462375;113;923608;-74
2022/01/23 01:15:26;;;;;;;79.71;44.26;;;;;;;-2.70;62.07;100920.94;462028;113;923047;-74
2022/01/23 01:16:56;;;;;;;80.54;43.16;;;;;;;-2.78;62.03;100921.53;461043;113;922727;-73
2022/01/23 01:17:27;;;;;;;76.17;42.63;;;;;;;-2.82;62.06;100927.23;454054;113;923021;-73
2022/01/23 01:30:52;;;;;;;70.88;39.43;;;;;;;-3.22;62.84;100917.00;463056;113;922767;-72
2022/01/23 01:31:49;;;;;;;67.77;38.17;;;;;;;-3.25;62.96;100913.73;458207;114;922711;-73
2022/01/23 01:33:13;;;;;;;64.82;39.51;;;;;;;-3.27;63.12;100916.52;460447;114;922722;-73
2022/01/23 01:34:09;;;;;;;65.41;38.77;;;;;;;-3.28;63.25;100912.14;460046;113;922657;-73
2022/01/23 01:35:27;;;;;;;67.89;40.79;;;;;;;-3.25;63.34;100914.56;463660;113;922936;-73
2022/01/23 01:36:34;;;;;;;74.71;42.29;;;;;;;-3.24;63.34;100918.93;461285;113;922512;-73
2022/01/23 01:37:33;;;;;;;73.95;42.63;;;;;;;-3.22;63.33;100918.82;461741;113;923046;-73
2022/01/23 01:38:36;;;;;;;72.56;42.92;;;;;;;-3.22;63.31;100918.82;463463;113;922917;-74
2022/01/23 01:39:39;;;;;;;75.19;43.26;;;;;;;-3.22;63.35;100919.67;463792;113;922930;-73
2022/01/23 01:40:44;;;;;;;78.52;44.93;;;;;;;-3.22;63.44;100922.34;461530;113;922569;-74
2022/01/23 01:41:48;;;;;;;72.03;44.54;;;;;;;-3.21;63.42;100918.71;460548;113;930340;-74
2022/01/23 01:42:52;;;;;;;80.37;45.99;;;;;;;-3.20;63.37;100915.08;451925;117;923410;-72
2022/01/23 01:43:57;;;;;;;76.71;44.82;;;;;;;-3.20;63.37;100912.41;450839;114;922781;-72
2022/01/23 01:45:25;;;;;;;74.36;44.19;;;;;;;-3.21;63.31;100909.86;462358;113;922680;-73
2022/01/23 01:46:30;;;;;;;69.08;40.94;;;;;;;-3.23;63.32;100909.11;463600;113;923076;-73
2022/01/23 01:47:33;;;;;;;69.12;40.66;;;;;;;-3.25;63.40;100908.41;462599;113;922967;-73
2022/01/23 01:48:44;;;;;;;62.38;39.94;;;;;;;-3.27;63.43;100902.33;461578;113;931087;-73
2022/01/23 01:49:48;;;;;;;60.19;38.41;;;;;;;-3.28;63.39;100896.14;462870;113;922447;-73
2022/01/23 01:50:54;;;;;;;63.68;38.49;;;;;;;-3.29;63.35;100897.11;461670;113;923420;-73
2022/01/23 01:52:00;;;;;;;67.09;41.84;;;;;;;-3.28;63.35;100903.30;462208;113;922572;-73
2022/01/23 01:53:03;;;;;;;69.34;42.57;;;;;;;-3.27;63.36;100905.00;462578;113;922598;-73
2022/01/23 01:54:12;;;;;;;73.76;43.68;;;;;;;-3.30;63.40;100903.41;461681;113;922993;-73
2022/01/23 01:55:20;;;;;;;74.17;45.30;;;;;;;-3.28;63.45;100905.95;463105;113;922552;-73
2022/01/23 01:56:23;;;;;;;77.55;47.16;;;;;;;-3.29;63.58;100910.44;462796;113;922596;-72
2022/01/23 01:57:39;;;;;;;74.43;45.01;;;;;;;-3.27;63.63;100905.84;462736;113;922909;-73
2022/01/23 02:00:14;;;;;;;76.02;46.18;;;;;;;-3.26;63.62;100907.55;441457;119;922923;-73
2022/01/23 02:10:45;;;;;;;72.19;43.22;;;;;;;-3.01;64.33;100928.67;461681;113;922972;-72
2022/01/23 02:14:25;;;;;;;63.37;37.69;;;;;;;-2.85;64.39;100940.80;462844;113;923012;-72
2022/01/23 02:15:40;;;;;;;59.36;35.96;;;;;;;-2.80;64.39;100938.62;460082;113;922601;-73
2022/01/23 02:50:32;;;;;;;53.57;32.56;;;;;;;-2.56;63.54;100948.22;462225;113;922979;-73
2022/01/23 02:54:20;;;;;;;96.71;51.46;;;;;;;-3.18;63.54;100969.13;464303;113;923050;-73
2022/01/23 02:55:17;;;;;;;104.07;56.23;;;;;;;-3.13;63.73;100971.44;459578;113;923011;-73
2022/01/23 02:56:21;;;;;;;115.93;61.38;;;;;;;-3.08;63.79;100969.27;460539;113;922727;-73
2022/01/23 02:57:37;;;;;;;119.81;61.11;;;;;;;-3.02;63.76;100979.46;461682;113;922642;-72
2022/01/23 02:58:35;;;;;;;108.97;59.78;;;;;;;-2.98;63.76;100973.77;459946;113;922542;-72
2022/01/23 02:59:39;;;;;;;112.92;60.92;;;;;;;-2.91;63.71;100981.30;462511;113;922863;-73
2022/01/23 03:02:13;;;;;;;115.57;58.49;;;;;;;-2.72;63.50;100986.91;486176;107;925931;-74
2022/01/23 03:03:25;;;;;;;117.82;59.32;;;;;;;-2.81;63.41;100983.13;476825;109;922560;-72
2022/01/23 03:04:37;;;;;;;119.06;60.98;;;;;;;-2.79;63.17;100993.69;477505;109;922571;-73
2022/01/23 03:05:44;;;;;;;117.81;60.91;;;;;;;-2.80;62.97;100991.98;477510;109;922811;-73
2022/01/23 03:08:00;;;;;;;120.50;63.59;;;;;;;-2.84;62.82;100990.53;479368;109;922483;-72
2022/01/23 03:10:11;;;;;;;114.42;60.94;;;;;;;-2.85;62.97;100992.34;478734;109;922653;-73
2022/01/23 03:11:32;;;;;;;105.43;57.10;;;;;;;-2.82;62.99;100993.94;477946;109;922490;-73
2022/01/23 03:13:10;;;;;;;99.81;56.18;;;;;;;-2.81;62.98;100999.14;475871;109;922741;-73
2022/01/23 03:28:38;;;;;;;;;;;;;;;-2.75;62.39;101027.17;483118;109;922814;-72
2022/01/23 03:31:06;;;;;;;77.84;43.81;;;;;;;-2.77;62.35;101029.13;479419;109;930231;-72
2022/01/23 03:32:11;;;;;;;69.30;41.31;;;;;;;-2.79;62.42;101029.23;478382;109;922620;-73
2022/01/23 03:33:04;;;;;;;65.06;38.62;;;;;;;-2.79;62.50;101023.90;476229;109;922569;-73
2022/01/23 03:34:07;;;;;;;60.03;38.37;;;;;;;-2.77;62.57;101019.30;479357;109;922980;-73
2022/01/23 03:35:10;;;;;;;64.81;38.24;;;;;;;-2.74;62.61;101020.86;479443;109;922554;-73
2022/01/23 03:36:14;;;;;;;57.80;36.54;;;;;;;-2.72;62.56;101022.46;479061;109;930469;-74
2022/01/23 03:37:18;;;;;;;55.79;35.71;;;;;;;-2.69;62.51;101024.88;479455;109;922485;-73
2022/01/23 03:38:21;;;;;;;55.91;33.81;;;;;;;-2.66;62.43;101034.48;479057;109;922816;-73
2022/01/23 03:39:25;;;;;;;52.31;33.13;;;;;;;-2.65;62.44;101026.36;479998;109;922610;-73
2022/01/23 03:40:28;;;;;;;55.48;34.16;;;;;;;-2.63;62.36;101028.89;479292;109;930350;-72
2022/01/23 03:41:31;;;;;;;43.29;29.61;;;;;;;-2.62;62.37;101035.93;480819;109;922640;-73
2022/01/23 03:42:39;;;;;;;38.69;28.79;;;;;;;-2.60;62.29;101036.67;480096;109;922469;-73
2022/01/23 03:43:40;;;;;;;40.02;27.53;;;;;;;-2.60;62.21;101037.53;473136;111;923239;-73
2022/01/23 03:45:04;;;;;;;40.37;28.15;;;;;;;-2.59;62.10;101041.05;472432;109;922676;-72
2022/01/23 03:47:21;;;;;;;45.43;29.13;;;;;;;-2.60;61.93;101042.86;478352;109;922595;-72
2022/01/23 03:49:40;;;;;;;50.11;32.31;;;;;;;-2.64;61.52;101044.05;478162;109;922438;-73
2022/01/23 03:50:47;;;;;;;47.05;29.88;;;;;;;-2.70;61.50;101047.19;476671;109;922574;-73
2022/01/23 03:51:52;;;;;;;41.56;28.59;;;;;;;-2.73;61.58;101042.10;477809;109;922573;-74
2022/01/23 03:52:55;;;;;;;40.71;27.66;;;;;;;-2.75;61.51;101033.36;479550;109;922517;-74
2022/01/23 03:53:58;;;;;;;37.53;27.98;;;;;;;-2.76;61.52;101038.83;478708;109;922857;-74
2022/01/23 03:55:04;;;;;;;39.41;27.41;;;;;;;-2.77;61.58;101045.13;478713;109;922634;-72
2022/01/23 03:56:07;;;;;;;44.19;29.22;;;;;;;-2.79;61.60;101049.73;470219;111;923337;-73
2022/01/23 03:57:11;;;;;;;50.21;30.34;;;;;;;-2.79;61.69;101045.24;470805;109;922662;-72
2022/01/23 03:58:14;;;;;;;41.46;28.60;;;;;;;-2.77;61.71;101042.47;478152;109;922996;-73
2022/01/23 03:59:17;;;;;;;42.77;28.83;;;;;;;-2.76;61.66;101041.50;479590;109;922637;-72
2022/01/23 04:00:21;;;;;;;43.69;28.21;;;;;;;-2.75;61.65;101053.85;479224;109;923193;-73
2022/01/23 04:01:24;;;;;;;38.43;27.85;;;;;;;-2.75;61.64;101054.70;477968;109;922878;-74
2022/01/23 04:02:29;;;;;;;46.06;30.17;;;;;;;-2.74;61.55;101052.89;477915;109;922651;-72
2022/01/23 04:03:35;;;;;;;45.48;29.53;;;;;;;-2.74;61.54;101055.55;480490;109;922611;-73
2022/01/23 04:04:39;;;;;;;44.11;30.68;;;;;;;-2.75;61.51;101048.52;477836;109;922572;-73
2022/01/23 04:05:44;;;;;;;48.73;31.19;;;;;;;-2.77;61.38;101050.47;478775;109;923385;-74
2022/01/23 04:06:48;;;;;;;52.44;31.42;;;;;;;-2.80;61.13;101051.54;471025;109;922638;-71
2022/01/23 04:07:51;;;;;;;39.47;29.25;;;;;;;-2.85;61.15;101053.72;470856;109;922701;-72
2022/01/23 04:08:54;;;;;;;45.66;29.76;;;;;;;-2.89;61.11;101051.41;477883;109;922605;-72
2022/01/23 04:09:57;;;;;;;41.16;28.52;;;;;;;-2.92;61.35;101059.66;478816;109;922930;-72
2022/01/23 04:11:01;;;;;;;48.60;29.96;;;;;;;-2.92;61.46;101054.33;478885;109;922881;-73
2022/01/23 04:12:06;;;;;;;45.06;28.22;;;;;;;-2.91;61.50;101056.00;478700;109;922550;-73
2022/01/23 04:13:21;;;;;;;41.64;30.46;;;;;;;-2.90;61.54;101050.55;478409;109;930370;-73
2022/01/23 04:14:21;;;;;;;46.38;29.86;;;;;;;-2.91;61.43;101051.52;478145;109;923239;-72
2022/01/23 04:19:42;;;;;;;40.01;26.55;;;;;;;-2.99;61.58;101056.60;463641;112;923054;-72
2022/01/23 04:21:04;;;;;;;37.57;26.21;;;;;;;-3.00;61.58;101047.74;462925;112;922613;-72
2022/01/23 04:45:23;;;;;;;37.39;24.26;;;;;;;-2.90;62.04;101071.89;463074;112;922992;-73
2022/01/23 04:59:47;;;;;;;34.53;21.74;;;;;;;-2.89;61.93;101080.75;453816;113;922727;-73
2022/01/23 05:00:50;;;;;;;38.31;23.28;;;;;;;-2.89;61.94;101081.61;451237;113;922890;-73
2022/01/23 05:02:10;;;;;;;36.12;22.35;;;;;;;-2.87;61.95;101081.50;462581;111;922518;-73
2022/01/23 05:04:46;;;;;;;26.66;17.99;;;;;;;-2.86;61.96;101076.02;441220;119;922850;-73
2022/01/23 05:05:59;;;;;;;22.34;17.72;;;;;;;-2.85;61.93;101082.21;438938;119;922812;-74
2022/01/23 05:07:01;;;;;;;25.52;17.71;;;;;;;-2.85;61.91;101082.21;440376;118;923027;-74
2022/01/23 05:08:17;;;;;;;24.60;17.49;;;;;;;-2.85;61.87;101085.73;440380;119;923116;-72
2022/01/23 05:09:31;;;;;;;21.31;17.89;;;;;;;-2.84;61.87;101081.25;439764;119;922926;-73
2022/01/23 05:10:39;;;;;;;21.21;17.48;;;;;;;-2.84;61.81;101079.44;448569;113;922954;-73
2022/01/23 05:12:05;;;;;;;18.14;16.26;;;;;;;-2.83;61.79;101074.95;463252;113;922758;-72
2022/01/23 05:13:08;;;;;;;18.81;16.76;;;;;;;-2.83;61.79;101083.81;464405;112;922588;-72
2022/01/23 05:14:11;;;;;;;21.69;17.36;;;;;;;-2.82;61.76;101082.84;464272;112;923082;-73
2022/01/23 05:15:14;;;;;;;20.48;17.19;;;;;;;-2.82;61.69;101082.00;465116;113;922813;-73
2022/01/23 05:16:20;;;;;;;21.43;17.66;;;;;;;-2.82;61.66;101082.84;463223;112;922640;-73
2022/01/23 05:17:23;;;;;;;24.09;18.31;;;;;;;-2.81;61.57;101081.03;453391;116;922847;-72
2022/01/23 05:18:26;;;;;;;23.22;18.29;;;;;;;-2.82;61.55;101084.66;449028;117;930582;-72
2022/01/23 05:19:30;;;;;;;26.59;18.37;;;;;;;-2.83;61.48;101086.48;438000;118;923204;-71
2022/01/23 05:20:33;;;;;;;21.80;17.21;;;;;;;-2.83;61.57;101086.48;452505;114;922932;-73
2022/01/23 05:22:52;;;;;;;24.14;17.94;;;;;;;-2.81;61.54;101086.38;448205;116;922667;-73
2022/01/23 05:23:55;;;;;;;21.64;17.72;;;;;;;-2.79;61.59;101095.09;446539;117;922579;-73
2022/01/23 05:25:21;;;;;;;23.33;18.58;;;;;;;-2.78;61.57;101099.47;446722;116;922579;-73
2022/01/23 05:26:20;;;;;;;23.49;17.94;;;;;;;-2.77;61.53;101094.02;445717;118;930620;-72
2022/01/23 05:27:27;;;;;;;24.94;19.44;;;;;;;-2.76;61.49;101094.87;447353;116;922555;-73
2022/01/23 05:28:29;;;;;;;27.15;19.69;;;;;;;-2.77;61.49;101101.17;447260;116;922704;-72
2022/01/23 05:29:33;;;;;;;30.19;20.66;;;;;;;-2.78;61.47;101094.13;446729;117;922558;-71
2022/01/23 05:30:37;;;;;;;26.83;20.76;;;;;;;-2.78;61.43;101099.47;447815;116;922600;-73
2022/01/23 05:31:42;;;;;;;30.28;21.43;;;;;;;-2.77;61.52;101098.50;439294;118;923017;-72
2022/01/23 05:32:45;;;;;;;32.18;21.34;;;;;;;-2.77;61.58;101099.36;453084;113;923240;-72
2022/01/23 05:33:48;;;;;;;30.25;21.15;;;;;;;-2.75;61.49;101104.55;450179;116;922740;-73
2022/01/23 05:34:52;;;;;;;25.45;21.07;;;;;;;-2.75;61.43;101100.07;446956;116;922682;-72
2022/01/23 05:35:57;;;;;;;29.04;21.73;;;;;;;-2.75;61.43;101089.40;447070;116;922776;-72
2022/01/23 05:37:01;;;;;;;28.73;22.00;;;;;;;-2.73;61.45;101094.63;448526;116;923086;-74
2022/01/23 05:38:05;;;;;;;29.14;22.18;;;;;;;-2.72;61.44;101093.66;440258;120;922757;-72
2022/01/23 05:39:08;;;;;;;32.47;23.37;;;;;;;-2.71;61.41;101090.03;455736;114;923280;-73
2022/01/23 05:40:15;;;;;;;30.35;23.66;;;;;;;-2.70;61.35;101086.41;461712;112;930499;-72
2022/01/23 05:41:19;;;;;;;38.79;24.91;;;;;;;-2.70;61.33;101095.23;460850;114;923073;-72
2022/01/23 05:42:24;;;;;;;37.27;23.89;;;;;;;-2.70;61.30;101089.89;453142;116;922576;-74
2022/01/23 05:43:27;;;;;;;48.63;27.07;;;;;;;-2.70;61.32;101086.41;448233;117;922661;-72
2022/01/23 05:44:31;;;;;;;42.22;25.64;;;;;;;-2.69;61.28;101091.59;437456;119;930466;-74
2022/01/23 05:45:37;;;;;;;37.60;24.37;;;;;;;-2.68;61.28;101089.78;452406;114;922773;-73
2022/01/23 05:46:41;;;;;;;36.56;24.36;;;;;;;-2.68;61.24;101089.78;437859;116;922910;-73
2022/01/23 05:47:46;;;;;;;43.93;25.98;;;;;;;-2.68;61.24;101087.11;446377;117;922618;-72
2022/01/23 05:48:54;;;;;;;44.73;26.38;;;;;;;-2.68;61.16;101089.78;442767;116;922907;-73
2022/01/23 05:50:17;;;;;;;44.65;26.98;;;;;;;-2.70;61.13;101095.23;445692;117;922580;-73
2022/01/23 05:51:22;;;;;;;38.31;26.29;;;;;;;-2.71;61.05;101093.56;442895;118;922629;-73
2022/01/23 05:52:37;;;;;;;44.07;25.64;;;;;;;-2.72;61.07;101091.00;448340;117;922554;-74
2022/01/23 05:53:59;;;;;;;35.92;24.58;;;;;;;-2.73;61.13;101094.63;447025;117;923004;-71
2022/01/23 05:55:07;;;;;;;40.34;25.14;;;;;;;-2.73;61.23;101097.30;434205;121;922826;-73
2022/01/23 05:56:29;;;;;;;37.09;23.87;;;;;;;-2.73;61.26;101094.63;460653;112;922872;-72
2022/01/23 05:57:34;;;;;;;36.17;24.02;;;;;;;-2.72;61.24;101101.67;450961;114;922797;-72
2022/01/23 05:58:44;;;;;;;;;;;;;;;-2.72;61.33;101097.19;450628;116;922254;-73
2022/01/23 05:59:48;;;;;;;27.44;19.26;;;;;;;-2.70;61.36;101103.23;447799;116;922277;-73
2022/01/23 06:00:51;;;;;;;22.29;19.21;;;;;;;-2.70;61.35;101095.23;447132;116;922567;-73
2022/01/23 06:01:55;;;;;;;24.19;19.73;;;;;;;-2.70;61.35;101094.41;448517;116;922775;-72
2022/01/23 06:03:00;;;;;;;28.34;19.62;;;;;;;-2.70;61.32;101089.89;447774;118;923290;-71
2022/01/23 06:04:11;;;;;;;24.32;20.03;;;;;;;-2.69;61.34;101093.42;446880;117;922807;-73
2022/01/23 06:05:16;;;;;;;20.24;17.75;;;;;;;-2.68;61.27;101084.45;451820;114;923034;-71
2022/01/23 06:06:33;;;;;;;21.90;18.63;;;;;;;-2.69;61.27;101083.59;448393;116;923139;-71
2022/01/23 06:07:36;;;;;;;21.09;17.89;;;;;;;-2.67;61.28;101081.67;440313;120;922602;-73
2022/01/23 06:08:40;;;;;;;21.30;17.86;;;;;;;-2.66;61.23;101082.52;438953;118;922714;-72
2022/01/23 06:09:43;;;;;;;20.28;17.28;;;;;;;-2.66;61.17;101088.71;445157;116;922562;-73
2022/01/23 06:10:53;;;;;;;22.25;17.48;;;;;;;-2.67;61.13;101087.01;443903;116;922662;-72
2022/01/23 06:11:51;;;;;;;25.46;18.19;;;;;;;-2.66;61.13;101091.38;444066;117;922720;-73
2022/01/23 06:12:55;;;;;;;22.29;19.26;;;;;;;-2.68;61.11;101100.46;447456;118;922671;-73
2022/01/23 06:13:58;;;;;;;23.57;18.84;;;;;;;-2.66;61.18;101098.53;445573;116;922709;-72
2022/01/23 06:15:02;;;;;;;24.78;19.19;;;;;;;-2.65;61.23;101100.24;445346;117;922785;-74
2022/01/23 06:16:05;;;;;;;20.99;18.15;;;;;;;-2.63;61.23;101107.15;444669;118;930634;-72
2022/01/23 06:17:09;;;;;;;24.69;17.65;;;;;;;-2.61;61.22;101101.70;449562;115;922705;-72
2022/01/23 06:18:20;;;;;;;20.37;17.78;;;;;;;-2.60;61.17;101103.41;446507;115;922965;-72
2022/01/23 06:19:25;;;;;;;19.62;17.27;;;;;;;-2.58;61.16;101101.45;446853;116;923720;-72
2022/01/23 06:20:45;;;;;;;24.14;17.16;;;;;;;-2.56;61.13;101104.86;449619;117;922684;-73
2022/01/23 06:22:08;;;;;;;21.18;17.83;;;;;;;-2.55;61.06;101107.42;450009;117;922896;-73
2022/01/23 06:23:30;;;;;;;24.78;19.63;;;;;;;-2.55;61.07;101107.42;456258;113;923125;-73
2022/01/23 06:24:47;;;;;;;26.54;20.15;;;;;;;-2.53;61.12;101105.47;460847;113;923216;-71
2022/01/23 06:25:49;;;;;;;25.15;19.82;;;;;;;-2.50;61.13;101111.55;447607;116;922990;-75
2022/01/23 06:27:01;;;;;;;26.57;20.49;;;;;;;-2.49;61.07;101106.09;458289;113;922572;-76
2022/01/23 06:28:06;;;;;;;28.19;20.34;;;;;;;-2.48;60.99;101104.28;456464;114;922872;-71
2022/01/23 06:29:12;;;;;;;27.41;21.07;;;;;;;-2.48;60.99;101105.10;457707;111;922882;-72
2022/01/23 06:30:17;;;;;;;22.48;19.33;;;;;;;-2.45;60.97;101102.22;463934;112;922509;-72
2022/01/23 06:31:20;;;;;;;20.25;18.20;;;;;;;-2.43;61.00;101102.11;464771;111;922988;-73
2022/01/23 06:32:24;;;;;;;26.57;19.19;;;;;;;-2.42;60.93;101101.97;464922;113;923106;-72
2022/01/23 06:33:28;;;;;;;23.38;19.59;;;;;;;-2.37;60.89;101106.97;465914;111;922722;-73
2022/01/23 06:34:31;;;;;;;23.92;19.96;;;;;;;-2.36;60.80;101108.65;459575;113;923184;-73
2022/01/23 06:35:35;;;;;;;33.38;21.94;;;;;;;-2.36;60.70;101101.49;461047;113;923154;-72
2022/01/23 06:36:39;;;;;;;24.23;21.52;;;;;;;-2.33;60.72;101105.76;460549;113;922639;-73
2022/01/23 06:37:42;;;;;;;30.71;22.43;;;;;;;-2.31;60.66;101106.47;461387;112;922770;-73
2022/01/23 06:38:45;;;;;;;31.01;22.55;;;;;;;-2.28;60.65;101104.43;461504;113;922981;-74
2022/01/23 06:39:50;;;;;;;24.74;21.21;;;;;;;-2.28;60.57;101096.41;463276;112;922608;-72
2022/01/23 06:40:56;;;;;;;30.48;22.04;;;;;;;-2.25;60.56;101105.99;460249;112;922753;-73
2022/01/23 06:42:19;;;;;;;28.92;22.06;;;;;;;-2.23;60.53;101104.06;455151;115;922864;-74
2022/01/23 06:43:40;;;;;;;23.21;20.20;;;;;;;-2.21;60.52;101112.81;454372;114;923402;-72
2022/01/23 06:44:46;;;;;;;27.56;20.81;;;;;;;-2.20;60.41;101111.82;452702;115;922987;-74
2022/01/23 06:45:50;;;;;;;28.24;20.71;;;;;;;-2.20;60.37;101118.02;452220;115;923559;-73
2022/01/23 06:46:54;;;;;;;26.68;20.94;;;;;;;-2.19;60.32;101118.87;452763;115;922771;-73
2022/01/23 06:48:04;;;;;;;27.13;21.08;;;;;;;-2.06;60.30;101118.77;474066;110;947734;-73
2022/01/23 06:49:09;;;;;;;26.14;20.74;;;;;;;-2.18;60.25;101116.09;464986;112;922610;-72
2022/01/23 06:50:15;;;;;;;27.84;22.09;;;;;;;-2.17;60.24;101120.47;463908;113;930120;-73
2022/01/23 06:51:18;;;;;;;28.07;22.06;;;;;;;-2.16;60.12;101122.17;462920;113;923096;-73
2022/01/23 06:52:22;;;;;;;31.53;22.62;;;;;;;-2.16;60.22;101124.84;452555;114;922678;-74
2022/01/23 06:53:27;;;;;;;31.02;23.48;;;;;;;-2.15;60.18;101120.36;452489;114;922683;-72
2022/01/23 06:54:30;;;;;;;41.60;25.36;;;;;;;-2.15;60.19;101129.19;463760;113;923080;-75
2022/01/23 06:55:34;;;;;;;36.41;25.88;;;;;;;-2.12;60.20;101138.80;463195;113;922468;-71
2022/01/23 06:56:37;;;;;;;33.96;24.80;;;;;;;-2.11;60.21;101141.36;463658;113;922520;-72
2022/01/23 06:57:40;;;;;;;66.68;37.96;;;;;;;-2.07;60.16;101146.45;463530;113;930415;-72
2022/01/23 06:58:44;;;;;;;105.38;49.99;;;;;;;-2.06;60.09;101140.14;464624;113;922608;-72
2022/01/23 06:59:47;;;;;;;177.51;74.64;;;;;;;-2.03;60.08;101139.88;462657;112;930636;-74
2022/01/23 07:01:07;;;;;;;156.14;65.61;;;;;;;-2.03;59.95;101135.39;440378;119;930686;-74
2022/01/23 07:02:12;;;;;;;117.76;54.06;;;;;;;-2.01;59.96;101137.95;451033;112;923358;-73
2022/01/23 07:03:23;;;;;;;80.98;39.77;;;;;;;-2.01;59.96;101137.95;460217;112;922646;-74
2022/01/23 07:04:40;;;;;;;93.13;42.49;;;;;;;-2.00;59.90;101140.52;463522;112;923358;-73
2022/01/23 07:05:54;;;;;;;125.65;61.64;;;;;;;-1.99;59.89;101142.22;433213;112;922754;-72
2022/01/23 07:07:00;;;;;;;106.21;56.44;;;;;;;-1.99;59.93;101138.70;461495;112;922612;-72
2022/01/23 07:08:06;;;;;;;146.64;75.94;;;;;;;-1.97;59.95;101145.61;463444;112;922601;-73
2022/01/23 07:09:23;;;;;;;110.59;52.93;;;;;;;-1.94;59.99;101147.20;462263;112;922630;-73
2022/01/23 07:10:28;;;;;;;107.41;52.52;;;;;;;-1.91;60.04;101145.13;461144;112;922505;-73
2022/01/23 07:11:42;;;;;;;47.16;28.19;;;;;;;-1.88;59.97;101149.39;461906;112;922666;-73
2022/01/23 07:12:49;;;;;;;47.57;28.19;;;;;;;-1.85;59.97;101143.78;462004;112;922626;-73
2022/01/23 07:13:57;;;;;;;35.20;26.18;;;;;;;-1.85;59.74;101139.30;463381;112;923296;-74
2022/01/23 07:15:19;;;;;;;49.04;28.99;;;;;;;-1.86;59.58;101142.08;463883;112;922886;-73
2022/01/23 07:16:31;;;;;;;58.83;30.39;;;;;;;-1.88;59.61;101141.38;462595;112;923001;-73
2022/01/23 07:17:46;;;;;;;48.01;28.76;;;;;;;-1.92;59.53;101154.11;444070;113;922900;-72
2022/01/23 07:18:56;;;;;;;82.86;43.25;;;;;;;-1.95;59.60;101153.51;464731;112;923008;-72
2022/01/23 07:20:01;;;;;;;102.22;51.69;;;;;;;-1.97;59.81;101150.09;463653;112;922613;-72
2022/01/23 07:21:06;;;;;;;79.68;42.13;;;;;;;-1.96;59.91;101155.33;463872;112;922554;-72